sensor_id;sensor_type;location;lat;lon;timestamp;temperature;humidity
1800;DHT22;919;48.274;12.292;2023-08-30T00:01:48;14.00;99.90
1800;DHT22;919;48.274;12.292;2023-08-30T00:04:14;13.90;99.90
1800;DHT22;919;48.274;12.292;2023-08-30T00:06:41;14.00;99.90
1800;DHT22;919;48.274;12.292;2023-08-30T00:09:08;14.00;99.90
1800;DHT22;919;48.274;12.292;2023-08-30T00:11:35;14.00;99.90
1800;DHT22;919;48.274;12.292;2023-08-30T00:14:06;14.00;99.90
1800;DHT22;919;48.274;12.292;2023-08-30T00:16:34;14.00;99.90
1800;DHT22;919;48.274;12.292;2023-08-30T00:19:00;14.00;99.90
1800;DHT22;919;48.274;12.292;2023-08-30T00:21:27;13.90;99.90
1800;DHT22;919;48.274;12.292;2023-08-30T00:23:54;14.00;99.90
1800;DHT22;919;48.274;12.292;2023-08-30T00:26:21;14.00;99.90
1800;DHT22;919;48.274;12.292;2023-08-30T00:28:47;13.90;99.90
1800;DHT22;919;48.274;12.292;2023-08-30T00:31:15;13.90;99.90
1800;DHT22;919;48.274;12.292;2023-08-30T00:33:42;13.90;99.90
1800;DHT22;919;48.274;12.292;2023-08-30T00:36:09;13.90;99.90
1800;DHT22;919;48.274;12.292;2023-08-30T00:38:35;13.90;99.90
1800;DHT22;919;48.274;12.292;2023-08-30T00:41:02;13.90;99.90
1800;DHT22;919;48.274;12.292;2023-08-30T00:43:29;13.90;99.90
1800;DHT22;919;48.274;12.292;2023-08-30T00:45:56;13.90;99.90
1800;DHT22;919;48.274;12.292;2023-08-30T00:48:24;13.90;99.90
1800;DHT22;919;48.274;12.292;2023-08-30T00:50:51;13.80;99.90
1800;DHT22;919;48.274;12.292;2023-08-30T00:53:18;13.90;99.90
1800;DHT22;919;48.274;12.292;2023-08-30T00:55:45;13.90;99.90
1800;DHT22;919;48.274;12.292;2023-08-30T00:58:12;13.90;99.90
1800;DHT22;919;48.274;12.292;2023-08-30T01:00:39;13.90;99.90
1800;DHT22;919;48.274;12.292;2023-08-30T01:03:06;13.90;99.90
1800;DHT22;919;48.274;12.292;2023-08-30T01:05:35;13.90;99.90
1800;DHT22;919;48.274;12.292;2023-08-30T01:08:02;13.90;99.90
1800;DHT22;919;48.274;12.292;2023-08-30T01:10:38;13.90;99.90
1800;DHT22;919;48.274;12.292;2023-08-30T01:13:09;13.90;99.90
1800;DHT22;919;48.274;12.292;2023-08-30T01:15:39;13.90;99.90
1800;DHT22;919;48.274;12.292;2023-08-30T01:18:07;13.80;99.90
1800;DHT22;919;48.274;12.292;2023-08-30T01:20:38;13.80;99.90
1800;DHT22;919;48.274;12.292;2023-08-30T01:23:07;13.80;99.90
1800;DHT22;919;48.274;12.292;2023-08-30T01:25:45;13.80;99.90
1800;DHT22;919;48.274;12.292;2023-08-30T01:28:19;13.80;99.90
1800;DHT22;919;48.274;12.292;2023-08-30T01:30:47;13.80;99.90
1800;DHT22;919;48.274;12.292;2023-08-30T01:33:15;13.80;99.90
1800;DHT22;919;48.274;12.292;2023-08-30T01:35:43;13.80;99.90
1800;DHT22;919;48.274;12.292;2023-08-30T01:38:11;13.80;99.90
1800;DHT22;919;48.274;12.292;2023-08-30T01:40:40;13.80;99.90
1800;DHT22;919;48.274;12.292;2023-08-30T01:43:08;13.80;99.90
1800;DHT22;919;48.274;12.292;2023-08-30T01:45:39;13.80;99.90
1800;DHT22;919;48.274;12.292;2023-08-30T01:48:09;13.80;99.90
1800;DHT22;919;48.274;12.292;2023-08-30T01:50:38;13.80;99.90
1800;DHT22;919;48.274;12.292;2023-08-30T01:53:05;13.80;99.90
1800;DHT22;919;48.274;12.292;2023-08-30T01:55:34;13.90;99.90
1800;DHT22;919;48.274;12.292;2023-08-30T01:58:02;13.90;99.90
1800;DHT22;919;48.274;12.292;2023-08-30T02:00:29;13.90;99.90
1800;DHT22;919;48.274;12.292;2023-08-30T02:02:57;13.80;99.90
1800;DHT22;919;48.274;12.292;2023-08-30T02:05:24;13.90;99.90
1800;DHT22;919;48.274;12.292;2023-08-30T02:07:56;13.90;99.90
1800;DHT22;919;48.274;12.292;2023-08-30T02:10:25;13.90;99.90
1800;DHT22;919;48.274;12.292;2023-08-30T02:12:54;13.90;99.90
1800;DHT22;919;48.274;12.292;2023-08-30T02:15:24;13.90;99.90
1800;DHT22;919;48.274;12.292;2023-08-30T02:17:52;13.90;99.90
1800;DHT22;919;48.274;12.292;2023-08-30T02:20:20;13.90;99.90
1800;DHT22;919;48.274;12.292;2023-08-30T02:22:48;13.90;99.90
1800;DHT22;919;48.274;12.292;2023-08-30T02:25:14;13.90;99.90
1800;DHT22;919;48.274;12.292;2023-08-30T02:27:41;13.90;99.90
1800;DHT22;919;48.274;12.292;2023-08-30T02:30:08;13.90;99.90
1800;DHT22;919;48.274;12.292;2023-08-30T02:32:37;13.90;99.90
1800;DHT22;919;48.274;12.292;2023-08-30T02:35:05;13.90;99.90
1800;DHT22;919;48.274;12.292;2023-08-30T02:37:33;13.90;99.90
1800;DHT22;919;48.274;12.292;2023-08-30T02:40:00;13.90;99.90
1800;DHT22;919;48.274;12.292;2023-08-30T02:42:28;13.90;99.90
1800;DHT22;919;48.274;12.292;2023-08-30T02:44:55;13.90;99.90
1800;DHT22;919;48.274;12.292;2023-08-30T02:47:21;13.90;99.90
1800;DHT22;919;48.274;12.292;2023-08-30T02:49:48;13.90;99.90
1800;DHT22;919;48.274;12.292;2023-08-30T02:52:15;13.90;99.90
1800;DHT22;919;48.274;12.292;2023-08-30T02:54:43;13.90;99.90
1800;DHT22;919;48.274;12.292;2023-08-30T02:57:10;13.90;99.90
1800;DHT22;919;48.274;12.292;2023-08-30T02:59:36;13.90;99.90
1800;DHT22;919;48.274;12.292;2023-08-30T03:02:03;13.90;99.90
1800;DHT22;919;48.274;12.292;2023-08-30T03:04:30;13.80;99.90
1800;DHT22;919;48.274;12.292;2023-08-30T03:06:56;13.80;99.90
1800;DHT22;919;48.274;12.292;2023-08-30T03:09:23;13.80;99.90
1800;DHT22;919;48.274;12.292;2023-08-30T03:11:51;13.80;99.90
1800;DHT22;919;48.274;12.292;2023-08-30T03:14:18;13.80;99.90
1800;DHT22;919;48.274;12.292;2023-08-30T03:16:45;13.80;99.90
1800;DHT22;919;48.274;12.292;2023-08-30T03:19:12;13.80;99.90
1800;DHT22;919;48.274;12.292;2023-08-30T03:21:39;13.80;99.90
1800;DHT22;919;48.274;12.292;2023-08-30T03:24:06;13.70;99.90
1800;DHT22;919;48.274;12.292;2023-08-30T03:26:33;13.70;99.90
1800;DHT22;919;48.274;12.292;2023-08-30T03:29:01;13.80;99.90
1800;DHT22;919;48.274;12.292;2023-08-30T03:31:28;13.70;99.90
1800;DHT22;919;48.274;12.292;2023-08-30T03:33:55;13.70;99.90
1800;DHT22;919;48.274;12.292;2023-08-30T03:36:22;13.70;99.90
1800;DHT22;919;48.274;12.292;2023-08-30T03:38:49;13.70;99.90
1800;DHT22;919;48.274;12.292;2023-08-30T03:41:15;13.70;99.90
1800;DHT22;919;48.274;12.292;2023-08-30T03:43:42;13.70;99.90
1800;DHT22;919;48.274;12.292;2023-08-30T03:46:10;13.70;99.90
1800;DHT22;919;48.274;12.292;2023-08-30T03:48:37;13.70;99.90
1800;DHT22;919;48.274;12.292;2023-08-30T03:51:04;13.70;99.90
1800;DHT22;919;48.274;12.292;2023-08-30T03:53:30;13.70;99.90
1800;DHT22;919;48.274;12.292;2023-08-30T03:55:57;13.70;99.90
1800;DHT22;919;48.274;12.292;2023-08-30T03:58:24;13.70;99.90
1800;DHT22;919;48.274;12.292;2023-08-30T04:00:51;13.70;99.90
1800;DHT22;919;48.274;12.292;2023-08-30T04:03:19;13.70;99.90
1800;DHT22;919;48.274;12.292;2023-08-30T04:05:46;13.80;99.90
1800;DHT22;919;48.274;12.292;2023-08-30T04:08:13;13.70;99.90
1800;DHT22;919;48.274;12.292;2023-08-30T04:10:40;13.70;99.90
1800;DHT22;919;48.274;12.292;2023-08-30T04:13:08;13.70;99.90
1800;DHT22;919;48.274;12.292;2023-08-30T04:15:35;13.70;99.90
1800;DHT22;919;48.274;12.292;2023-08-30T04:18:03;13.70;99.90
1800;DHT22;919;48.274;12.292;2023-08-30T04:20:32;13.70;99.90
1800;DHT22;919;48.274;12.292;2023-08-30T04:22:59;13.70;99.90
1800;DHT22;919;48.274;12.292;2023-08-30T04:25:27;13.70;99.90
1800;DHT22;919;48.274;12.292;2023-08-30T04:27:54;13.70;99.90
1800;DHT22;919;48.274;12.292;2023-08-30T04:30:21;13.70;99.90
1800;DHT22;919;48.274;12.292;2023-08-30T04:32:48;13.70;99.90
1800;DHT22;919;48.274;12.292;2023-08-30T04:35:14;13.70;99.90
1800;DHT22;919;48.274;12.292;2023-08-30T04:37:42;13.70;99.90
1800;DHT22;919;48.274;12.292;2023-08-30T04:40:10;13.80;99.90
1800;DHT22;919;48.274;12.292;2023-08-30T04:42:37;13.70;99.90
1800;DHT22;919;48.274;12.292;2023-08-30T04:45:03;13.70;99.90
1800;DHT22;919;48.274;12.292;2023-08-30T04:47:31;13.70;99.90
1800;DHT22;919;48.274;12.292;2023-08-30T04:49:58;13.70;99.90
1800;DHT22;919;48.274;12.292;2023-08-30T04:52:25;13.70;99.90
1800;DHT22;919;48.274;12.292;2023-08-30T04:54:54;13.70;99.90
1800;DHT22;919;48.274;12.292;2023-08-30T04:57:20;13.70;99.90
1800;DHT22;919;48.274;12.292;2023-08-30T04:59:48;13.70;99.90
1800;DHT22;919;48.274;12.292;2023-08-30T05:02:15;13.70;99.90
1800;DHT22;919;48.274;12.292;2023-08-30T05:04:41;13.70;99.90
1800;DHT22;919;48.274;12.292;2023-08-30T05:07:08;13.70;99.90
1800;DHT22;919;48.274;12.292;2023-08-30T05:09:35;13.70;99.90
1800;DHT22;919;48.274;12.292;2023-08-30T05:12:04;13.70;99.90
1800;DHT22;919;48.274;12.292;2023-08-30T05:14:30;13.70;99.90
1800;DHT22;919;48.274;12.292;2023-08-30T05:16:57;13.70;99.90
1800;DHT22;919;48.274;12.292;2023-08-30T05:19:24;13.80;99.90
1800;DHT22;919;48.274;12.292;2023-08-30T05:21:51;13.80;99.90
1800;DHT22;919;48.274;12.292;2023-08-30T05:24:20;13.80;99.90
1800;DHT22;919;48.274;12.292;2023-08-30T05:26:47;13.80;99.90
1800;DHT22;919;48.274;12.292;2023-08-30T05:29:15;13.80;99.90
1800;DHT22;919;48.274;12.292;2023-08-30T05:31:42;13.80;99.90
1800;DHT22;919;48.274;12.292;2023-08-30T05:34:09;13.80;99.90
1800;DHT22;919;48.274;12.292;2023-08-30T05:36:36;13.80;99.90
1800;DHT22;919;48.274;12.292;2023-08-30T05:39:03;13.80;99.90
1800;DHT22;919;48.274;12.292;2023-08-30T05:41:30;13.80;99.90
1800;DHT22;919;48.274;12.292;2023-08-30T05:43:57;13.90;99.90
1800;DHT22;919;48.274;12.292;2023-08-30T05:46:25;13.90;99.90
1800;DHT22;919;48.274;12.292;2023-08-30T05:48:52;14.00;99.90
1800;DHT22;919;48.274;12.292;2023-08-30T05:51:20;14.00;99.90
1800;DHT22;919;48.274;12.292;2023-08-30T05:53:46;14.00;99.90
1800;DHT22;919;48.274;12.292;2023-08-30T05:56:13;14.00;99.90
1800;DHT22;919;48.274;12.292;2023-08-30T05:58:40;14.10;99.90
1800;DHT22;919;48.274;12.292;2023-08-30T06:01:07;14.10;99.90
1800;DHT22;919;48.274;12.292;2023-08-30T06:03:35;14.10;99.90
1800;DHT22;919;48.274;12.292;2023-08-30T06:06:02;14.20;99.90
1800;DHT22;919;48.274;12.292;2023-08-30T06:08:28;14.20;99.90
1800;DHT22;919;48.274;12.292;2023-08-30T06:10:55;14.30;99.90
1800;DHT22;919;48.274;12.292;2023-08-30T06:13:22;14.40;99.90
1800;DHT22;919;48.274;12.292;2023-08-30T06:15:50;14.50;99.90
1800;DHT22;919;48.274;12.292;2023-08-30T06:18:17;14.60;99.90
1800;DHT22;919;48.274;12.292;2023-08-30T06:20:45;14.60;99.90
1800;DHT22;919;48.274;12.292;2023-08-30T06:23:14;14.70;99.90
1800;DHT22;919;48.274;12.292;2023-08-30T06:25:41;14.90;99.90
1800;DHT22;919;48.274;12.292;2023-08-30T06:28:07;14.90;99.90
1800;DHT22;919;48.274;12.292;2023-08-30T06:30:34;14.90;99.90
1800;DHT22;919;48.274;12.292;2023-08-30T06:33:01;14.90;99.90
1800;DHT22;919;48.274;12.292;2023-08-30T06:35:28;15.00;99.90
1800;DHT22;919;48.274;12.292;2023-08-30T06:37:56;15.10;99.90
1800;DHT22;919;48.274;12.292;2023-08-30T06:40:23;15.20;99.90
1800;DHT22;919;48.274;12.292;2023-08-30T06:42:49;15.20;99.90
1800;DHT22;919;48.274;12.292;2023-08-30T06:45:16;15.20;99.90
1800;DHT22;919;48.274;12.292;2023-08-30T06:47:43;15.20;99.90
1800;DHT22;919;48.274;12.292;2023-08-30T06:50:10;15.20;99.90
1800;DHT22;919;48.274;12.292;2023-08-30T06:52:37;15.20;99.90
1800;DHT22;919;48.274;12.292;2023-08-30T06:55:05;15.30;99.90
1800;DHT22;919;48.274;12.292;2023-08-30T06:57:32;15.30;99.90
1800;DHT22;919;48.274;12.292;2023-08-30T06:59:59;15.30;99.90
1800;DHT22;919;48.274;12.292;2023-08-30T07:02:33;15.40;99.90
1800;DHT22;919;48.274;12.292;2023-08-30T07:05:01;15.40;99.90
1800;DHT22;919;48.274;12.292;2023-08-30T07:07:29;15.30;99.90
1800;DHT22;919;48.274;12.292;2023-08-30T07:09:56;15.30;99.90
1800;DHT22;919;48.274;12.292;2023-08-30T07:12:25;15.30;99.90
1800;DHT22;919;48.274;12.292;2023-08-30T07:14:52;15.40;99.90
1800;DHT22;919;48.274;12.292;2023-08-30T07:17:19;15.40;99.90
1800;DHT22;919;48.274;12.292;2023-08-30T07:19:49;15.50;99.90
1800;DHT22;919;48.274;12.292;2023-08-30T07:22:16;15.50;99.90
1800;DHT22;919;48.274;12.292;2023-08-30T07:24:43;15.60;99.90
1800;DHT22;919;48.274;12.292;2023-08-30T07:27:10;15.60;99.90
1800;DHT22;919;48.274;12.292;2023-08-30T07:29:39;15.60;99.90
1800;DHT22;919;48.274;12.292;2023-08-30T07:32:07;15.70;99.90
1800;DHT22;919;48.274;12.292;2023-08-30T07:34:34;15.80;99.90
1800;DHT22;919;48.274;12.292;2023-08-30T07:37:01;15.90;99.90
1800;DHT22;919;48.274;12.292;2023-08-30T07:39:28;16.00;99.90
1800;DHT22;919;48.274;12.292;2023-08-30T07:41:55;16.10;99.90
1800;DHT22;919;48.274;12.292;2023-08-30T07:44:21;16.20;99.90
1800;DHT22;919;48.274;12.292;2023-08-30T07:46:50;16.40;99.90
1800;DHT22;919;48.274;12.292;2023-08-30T07:49:16;16.50;99.90
1800;DHT22;919;48.274;12.292;2023-08-30T07:51:43;16.60;99.90
1800;DHT22;919;48.274;12.292;2023-08-30T07:54:11;16.60;99.90
1800;DHT22;919;48.274;12.292;2023-08-30T07:56:37;16.60;99.90
1800;DHT22;919;48.274;12.292;2023-08-30T07:59:04;16.50;99.90
1800;DHT22;919;48.274;12.292;2023-08-30T08:01:31;16.50;99.90
1800;DHT22;919;48.274;12.292;2023-08-30T08:03:59;16.40;99.90
1800;DHT22;919;48.274;12.292;2023-08-30T08:06:26;16.50;99.90
1800;DHT22;919;48.274;12.292;2023-08-30T08:08:53;16.70;99.90
1800;DHT22;919;48.274;12.292;2023-08-30T08:11:19;16.70;99.90
1800;DHT22;919;48.274;12.292;2023-08-30T08:13:46;16.70;99.90
1800;DHT22;919;48.274;12.292;2023-08-30T08:16:13;16.80;99.90
1800;DHT22;919;48.274;12.292;2023-08-30T08:18:40;16.80;99.90
1800;DHT22;919;48.274;12.292;2023-08-30T08:21:08;16.90;99.90
1800;DHT22;919;48.274;12.292;2023-08-30T08:23:35;16.90;99.90
1800;DHT22;919;48.274;12.292;2023-08-30T08:26:02;17.00;99.90
1800;DHT22;919;48.274;12.292;2023-08-30T08:28:29;16.90;99.90
1800;DHT22;919;48.274;12.292;2023-08-30T08:30:56;16.90;99.90
1800;DHT22;919;48.274;12.292;2023-08-30T08:33:22;16.80;99.90
1800;DHT22;919;48.274;12.292;2023-08-30T08:35:49;16.70;99.90
1800;DHT22;919;48.274;12.292;2023-08-30T08:38:18;16.70;99.90
1800;DHT22;919;48.274;12.292;2023-08-30T08:40:45;16.70;99.90
1800;DHT22;919;48.274;12.292;2023-08-30T08:43:12;16.90;99.90
1800;DHT22;919;48.274;12.292;2023-08-30T08:45:39;17.20;99.90
1800;DHT22;919;48.274;12.292;2023-08-30T08:48:06;17.40;99.90
1800;DHT22;919;48.274;12.292;2023-08-30T08:50:33;17.80;99.90
1800;DHT22;919;48.274;12.292;2023-08-30T08:53:02;17.90;99.90
1800;DHT22;919;48.274;12.292;2023-08-30T08:55:31;17.80;99.90
1800;DHT22;919;48.274;12.292;2023-08-30T08:58:00;17.80;99.90
1800;DHT22;919;48.274;12.292;2023-08-30T09:00:30;17.60;99.90
1800;DHT22;919;48.274;12.292;2023-08-30T09:02:57;17.40;99.90
1800;DHT22;919;48.274;12.292;2023-08-30T09:05:25;17.10;99.90
1800;DHT22;919;48.274;12.292;2023-08-30T09:07:52;17.00;99.90
1800;DHT22;919;48.274;12.292;2023-08-30T09:10:21;17.10;99.90
1800;DHT22;919;48.274;12.292;2023-08-30T09:12:49;17.20;99.90
1800;DHT22;919;48.274;12.292;2023-08-30T09:15:17;17.20;99.90
1800;DHT22;919;48.274;12.292;2023-08-30T09:17:44;17.30;99.90
1800;DHT22;919;48.274;12.292;2023-08-30T09:20:13;17.50;99.90
1800;DHT22;919;48.274;12.292;2023-08-30T09:22:43;17.60;99.90
1800;DHT22;919;48.274;12.292;2023-08-30T09:25:11;17.60;99.90
1800;DHT22;919;48.274;12.292;2023-08-30T09:27:50;17.50;99.90
1800;DHT22;919;48.274;12.292;2023-08-30T09:30:21;17.50;99.90
1800;DHT22;919;48.274;12.292;2023-08-30T09:32:48;17.60;99.90
1800;DHT22;919;48.274;12.292;2023-08-30T09:35:15;17.80;99.90
1800;DHT22;919;48.274;12.292;2023-08-30T09:38:01;17.80;99.90
1800;DHT22;919;48.274;12.292;2023-08-30T09:40:28;17.90;99.90
1800;DHT22;919;48.274;12.292;2023-08-30T09:42:58;18.10;99.90
1800;DHT22;919;48.274;12.292;2023-08-30T09:45:25;18.30;99.90
1800;DHT22;919;48.274;12.292;2023-08-30T09:47:52;18.30;99.90
1800;DHT22;919;48.274;12.292;2023-08-30T09:50:20;18.40;99.90
1800;DHT22;919;48.274;12.292;2023-08-30T09:52:47;18.50;99.90
1800;DHT22;919;48.274;12.292;2023-08-30T09:55:15;18.50;99.90
1800;DHT22;919;48.274;12.292;2023-08-30T09:57:42;18.40;99.90
1800;DHT22;919;48.274;12.292;2023-08-30T10:00:12;18.30;99.90
1800;DHT22;919;48.274;12.292;2023-08-30T10:02:40;18.20;99.90
1800;DHT22;919;48.274;12.292;2023-08-30T10:05:10;18.00;99.90
1800;DHT22;919;48.274;12.292;2023-08-30T10:07:37;17.80;99.90
1800;DHT22;919;48.274;12.292;2023-08-30T10:10:05;17.80;99.90
1800;DHT22;919;48.274;12.292;2023-08-30T10:12:33;18.20;99.90
1800;DHT22;919;48.274;12.292;2023-08-30T10:15:00;18.60;99.90
1800;DHT22;919;48.274;12.292;2023-08-30T10:17:31;19.00;99.90
1800;DHT22;919;48.274;12.292;2023-08-30T10:20:02;19.40;99.90
1800;DHT22;919;48.274;12.292;2023-08-30T10:22:30;19.60;99.90
1800;DHT22;919;48.274;12.292;2023-08-30T10:25:01;19.50;99.90
1800;DHT22;919;48.274;12.292;2023-08-30T10:27:30;19.60;99.90
1800;DHT22;919;48.274;12.292;2023-08-30T10:29:59;19.80;99.90
1800;DHT22;919;48.274;12.292;2023-08-30T10:32:27;19.70;99.90
1800;DHT22;919;48.274;12.292;2023-08-30T10:34:54;19.90;99.90
1800;DHT22;919;48.274;12.292;2023-08-30T10:37:26;20.10;99.90
1800;DHT22;919;48.274;12.292;2023-08-30T10:39:53;20.30;99.90
1800;DHT22;919;48.274;12.292;2023-08-30T10:42:30;20.60;99.90
1800;DHT22;919;48.274;12.292;2023-08-30T10:45:00;20.00;99.90
1800;DHT22;919;48.274;12.292;2023-08-30T10:47:42;19.90;99.90
1800;DHT22;919;48.274;12.292;2023-08-30T10:50:13;19.80;99.90
1800;DHT22;919;48.274;12.292;2023-08-30T10:52:40;19.60;99.90
1800;DHT22;919;48.274;12.292;2023-08-30T10:55:15;19.50;99.90
1800;DHT22;919;48.274;12.292;2023-08-30T10:57:43;19.40;99.90
1800;DHT22;919;48.274;12.292;2023-08-30T11:00:12;19.40;99.90
1800;DHT22;919;48.274;12.292;2023-08-30T11:02:48;19.50;99.90
1800;DHT22;919;48.274;12.292;2023-08-30T11:05:16;19.70;99.90
1800;DHT22;919;48.274;12.292;2023-08-30T11:07:43;19.80;99.90
1800;DHT22;919;48.274;12.292;2023-08-30T11:10:12;20.00;99.90
1800;DHT22;919;48.274;12.292;2023-08-30T11:12:40;20.10;99.90
1800;DHT22;919;48.274;12.292;2023-08-30T11:15:09;20.20;99.90
1800;DHT22;919;48.274;12.292;2023-08-30T11:17:37;20.40;99.90
1800;DHT22;919;48.274;12.292;2023-08-30T11:20:10;20.40;99.90
1800;DHT22;919;48.274;12.292;2023-08-30T11:22:38;20.50;99.90
1800;DHT22;919;48.274;12.292;2023-08-30T11:25:08;20.60;99.90
1800;DHT22;919;48.274;12.292;2023-08-30T11:27:35;20.60;99.90
1800;DHT22;919;48.274;12.292;2023-08-30T11:30:02;20.80;99.90
1800;DHT22;919;48.274;12.292;2023-08-30T11:32:32;20.90;99.90
1800;DHT22;919;48.274;12.292;2023-08-30T11:35:02;20.80;99.90
1800;DHT22;919;48.274;12.292;2023-08-30T11:37:31;20.80;99.90
1800;DHT22;919;48.274;12.292;2023-08-30T11:40:01;21.30;99.90
1800;DHT22;919;48.274;12.292;2023-08-30T11:42:36;21.50;99.90
1800;DHT22;919;48.274;12.292;2023-08-30T11:45:07;21.60;99.90
1800;DHT22;919;48.274;12.292;2023-08-30T11:47:34;21.80;99.90
1800;DHT22;919;48.274;12.292;2023-08-30T11:50:02;21.50;99.90
1800;DHT22;919;48.274;12.292;2023-08-30T11:52:30;21.80;99.90
1800;DHT22;919;48.274;12.292;2023-08-30T11:54:58;22.00;99.90
1800;DHT22;919;48.274;12.292;2023-08-30T11:57:25;22.20;99.90
1800;DHT22;919;48.274;12.292;2023-08-30T11:59:55;22.00;99.90
1800;DHT22;919;48.274;12.292;2023-08-30T12:02:22;21.80;99.90
1800;DHT22;919;48.274;12.292;2023-08-30T12:04:50;21.50;99.90
1800;DHT22;919;48.274;12.292;2023-08-30T12:07:21;21.30;99.90
1800;DHT22;919;48.274;12.292;2023-08-30T12:09:52;21.40;99.90
1800;DHT22;919;48.274;12.292;2023-08-30T12:12:23;21.40;99.90
1800;DHT22;919;48.274;12.292;2023-08-30T12:14:54;21.50;99.90
1800;DHT22;919;48.274;12.292;2023-08-30T12:17:22;21.50;99.90
1800;DHT22;919;48.274;12.292;2023-08-30T12:19:55;21.50;99.90
1800;DHT22;919;48.274;12.292;2023-08-30T12:22:22;21.50;99.90
1800;DHT22;919;48.274;12.292;2023-08-30T12:24:50;21.50;99.90
1800;DHT22;919;48.274;12.292;2023-08-30T12:27:19;21.70;99.90
1800;DHT22;919;48.274;12.292;2023-08-30T12:29:48;21.80;99.90
1800;DHT22;919;48.274;12.292;2023-08-30T12:32:23;21.90;99.90
1800;DHT22;919;48.274;12.292;2023-08-30T12:34:49;21.90;99.90
1800;DHT22;919;48.274;12.292;2023-08-30T12:37:16;21.90;99.90
1800;DHT22;919;48.274;12.292;2023-08-30T12:39:43;22.10;99.90
1800;DHT22;919;48.274;12.292;2023-08-30T12:42:11;21.90;99.90
1800;DHT22;919;48.274;12.292;2023-08-30T12:44:38;21.90;99.90
1800;DHT22;919;48.274;12.292;2023-08-30T12:47:05;21.90;99.90
1800;DHT22;919;48.274;12.292;2023-08-30T12:49:32;21.90;99.90
1800;DHT22;919;48.274;12.292;2023-08-30T12:51:58;22.00;99.90
1800;DHT22;919;48.274;12.292;2023-08-30T12:54:25;22.10;99.90
1800;DHT22;919;48.274;12.292;2023-08-30T12:56:52;22.30;99.90
1800;DHT22;919;48.274;12.292;2023-08-30T12:59:20;22.40;99.90
1800;DHT22;919;48.274;12.292;2023-08-30T13:01:47;22.40;99.90
1800;DHT22;919;48.274;12.292;2023-08-30T13:04:15;22.30;99.90
1800;DHT22;919;48.274;12.292;2023-08-30T13:06:42;22.20;99.90
1800;DHT22;919;48.274;12.292;2023-08-30T13:09:08;22.30;99.90
1800;DHT22;919;48.274;12.292;2023-08-30T13:11:36;22.30;99.90
1800;DHT22;919;48.274;12.292;2023-08-30T13:14:03;22.30;99.90
1800;DHT22;919;48.274;12.292;2023-08-30T13:16:31;22.20;99.90
1800;DHT22;919;48.274;12.292;2023-08-30T13:18:57;22.20;99.90
1800;DHT22;919;48.274;12.292;2023-08-30T13:21:25;22.40;99.90
1800;DHT22;919;48.274;12.292;2023-08-30T13:23:52;22.50;99.90
1800;DHT22;919;48.274;12.292;2023-08-30T13:26:18;22.70;99.90
1800;DHT22;919;48.274;12.292;2023-08-30T13:28:46;22.80;99.90
1800;DHT22;919;48.274;12.292;2023-08-30T13:31:12;22.50;99.90
1800;DHT22;919;48.274;12.292;2023-08-30T13:33:41;22.40;99.90
1800;DHT22;919;48.274;12.292;2023-08-30T13:36:07;22.00;99.90
1800;DHT22;919;48.274;12.292;2023-08-30T13:38:34;21.80;99.90
1800;DHT22;919;48.274;12.292;2023-08-30T13:41:01;21.60;99.90
1800;DHT22;919;48.274;12.292;2023-08-30T13:43:29;21.40;99.90
1800;DHT22;919;48.274;12.292;2023-08-30T13:46:00;21.20;99.90
1800;DHT22;919;48.274;12.292;2023-08-30T13:48:27;21.10;99.90
1800;DHT22;919;48.274;12.292;2023-08-30T13:50:55;21.00;99.90
1800;DHT22;919;48.274;12.292;2023-08-30T13:53:22;20.70;99.90
1800;DHT22;919;48.274;12.292;2023-08-30T13:55:50;20.70;99.90
1800;DHT22;919;48.274;12.292;2023-08-30T13:58:17;20.60;99.90
1800;DHT22;919;48.274;12.292;2023-08-30T14:00:44;20.60;99.90
1800;DHT22;919;48.274;12.292;2023-08-30T14:03:11;20.30;99.90
1800;DHT22;919;48.274;12.292;2023-08-30T14:05:38;20.30;99.90
1800;DHT22;919;48.274;12.292;2023-08-30T14:08:07;20.40;99.90
1800;DHT22;919;48.274;12.292;2023-08-30T14:10:34;20.30;99.90
1800;DHT22;919;48.274;12.292;2023-08-30T14:13:01;20.30;99.90
1800;DHT22;919;48.274;12.292;2023-08-30T14:15:28;20.40;99.90
1800;DHT22;919;48.274;12.292;2023-08-30T14:17:54;20.50;99.90
1800;DHT22;919;48.274;12.292;2023-08-30T14:20:21;20.40;99.90
1800;DHT22;919;48.274;12.292;2023-08-30T14:22:48;20.40;99.90
1800;DHT22;919;48.274;12.292;2023-08-30T14:25:16;20.40;99.90
1800;DHT22;919;48.274;12.292;2023-08-30T14:27:43;20.40;99.90
1800;DHT22;919;48.274;12.292;2023-08-30T14:30:10;20.40;99.90
1800;DHT22;919;48.274;12.292;2023-08-30T14:32:37;20.30;99.90
1800;DHT22;919;48.274;12.292;2023-08-30T14:35:04;20.30;99.90
1800;DHT22;919;48.274;12.292;2023-08-30T14:37:31;20.20;99.90
1800;DHT22;919;48.274;12.292;2023-08-30T14:39:59;20.10;99.90
1800;DHT22;919;48.274;12.292;2023-08-30T14:42:27;20.20;99.90
1800;DHT22;919;48.274;12.292;2023-08-30T14:44:54;20.20;99.90
1800;DHT22;919;48.274;12.292;2023-08-30T14:47:21;20.20;99.90
1800;DHT22;919;48.274;12.292;2023-08-30T14:49:48;20.10;99.90
1800;DHT22;919;48.274;12.292;2023-08-30T14:52:15;20.10;99.90
1800;DHT22;919;48.274;12.292;2023-08-30T14:54:42;20.00;99.90
1800;DHT22;919;48.274;12.292;2023-08-30T14:57:09;20.00;99.90
1800;DHT22;919;48.274;12.292;2023-08-30T14:59:37;20.00;99.90
1800;DHT22;919;48.274;12.292;2023-08-30T15:02:04;19.90;99.90
1800;DHT22;919;48.274;12.292;2023-08-30T15:04:31;19.90;99.90
1800;DHT22;919;48.274;12.292;2023-08-30T15:06:58;19.70;99.90
1800;DHT22;919;48.274;12.292;2023-08-30T15:09:24;19.60;99.90
1800;DHT22;919;48.274;12.292;2023-08-30T15:11:51;19.50;99.90
1800;DHT22;919;48.274;12.292;2023-08-30T15:14:18;19.40;99.90
1800;DHT22;919;48.274;12.292;2023-08-30T15:16:46;19.30;99.90
1800;DHT22;919;48.274;12.292;2023-08-30T15:19:12;19.30;99.90
1800;DHT22;919;48.274;12.292;2023-08-30T15:21:39;19.20;99.90
1800;DHT22;919;48.274;12.292;2023-08-30T15:24:06;19.10;99.90
1800;DHT22;919;48.274;12.292;2023-08-30T15:26:33;18.90;99.90
1800;DHT22;919;48.274;12.292;2023-08-30T15:29:00;18.90;99.90
1800;DHT22;919;48.274;12.292;2023-08-30T15:31:27;18.80;99.90
1800;DHT22;919;48.274;12.292;2023-08-30T15:33:55;18.70;99.90
1800;DHT22;919;48.274;12.292;2023-08-30T15:36:21;18.70;99.90
1800;DHT22;919;48.274;12.292;2023-08-30T15:38:48;18.60;99.90
1800;DHT22;919;48.274;12.292;2023-08-30T15:41:15;18.60;99.90
1800;DHT22;919;48.274;12.292;2023-08-30T15:43:42;18.50;99.90
1800;DHT22;919;48.274;12.292;2023-08-30T15:46:09;18.50;99.90
1800;DHT22;919;48.274;12.292;2023-08-30T15:48:37;18.40;99.90
1800;DHT22;919;48.274;12.292;2023-08-30T15:51:06;18.40;99.90
1800;DHT22;919;48.274;12.292;2023-08-30T15:53:34;18.40;99.90
1800;DHT22;919;48.274;12.292;2023-08-30T15:56:01;18.40;99.90
1800;DHT22;919;48.274;12.292;2023-08-30T15:58:28;18.40;99.90
1800;DHT22;919;48.274;12.292;2023-08-30T16:00:55;18.40;99.90
1800;DHT22;919;48.274;12.292;2023-08-30T16:03:23;18.40;99.90
1800;DHT22;919;48.274;12.292;2023-08-30T16:05:50;18.40;99.90